createdAt,value
2018-01-27T00:00:05.863Z,7.17
2018-01-27T00:01:06.703Z,7.15
2018-01-27T00:02:08.261Z,7.14
2018-01-27T00:03:05.382Z,7.14
2018-01-27T00:04:05.390Z,7.1
2018-01-27T00:05:04.726Z,7.09
2018-01-27T00:06:05.090Z,7.07
2018-01-27T00:07:05.542Z,7.04
2018-01-27T00:08:07.460Z,7.06
2018-01-27T00:09:05.000Z,7.03
2018-01-27T00:10:05.628Z,7.02
2018-01-27T00:11:05.698Z,7.02
2018-01-27T00:12:05.747Z,7.03
2018-01-27T00:13:06.470Z,7.01
2018-01-27T00:14:06.037Z,7
2018-01-27T00:15:05.204Z,7.01
2018-01-27T00:16:05.350Z,7.01
2018-01-27T00:17:04.576Z,7
2018-01-27T00:18:05.707Z,6.97
2018-01-27T00:19:05.596Z,6.97
2018-01-27T00:20:06.191Z,6.91
2018-01-27T00:21:05.425Z,6.91
2018-01-27T00:22:05.007Z,6.92
2018-01-27T00:23:05.857Z,6.87
2018-01-27T00:24:05.698Z,6.9
2018-01-27T00:25:05.056Z,6.9
2018-01-27T00:26:05.416Z,6.9
2018-01-27T00:27:05.447Z,6.89
2018-01-27T00:28:05.179Z,6.88
2018-01-27T00:29:06.001Z,6.85
2018-01-27T00:30:07.073Z,6.86
2018-01-27T00:31:05.801Z,6.85
2018-01-27T00:32:06.178Z,6.85
2018-01-27T00:33:06.626Z,6.84
2018-01-27T00:34:05.727Z,6.83
2018-01-27T00:35:06.561Z,6.82
2018-01-27T00:36:05.538Z,6.79
2018-01-27T00:37:04.667Z,6.79
2018-01-27T00:38:05.418Z,6.78
2018-01-27T00:39:06.376Z,6.77
2018-01-27T00:40:07.432Z,6.79
2018-01-27T00:41:04.778Z,6.77
2018-01-27T00:42:04.890Z,6.77
2018-01-27T00:43:05.935Z,6.78
2018-01-27T00:44:07.811Z,6.75
2018-01-27T00:45:04.920Z,6.74
2018-01-27T00:46:06.986Z,6.75
2018-01-27T00:47:08.587Z,6.71
2018-01-27T00:48:06.989Z,6.72
2018-01-27T00:49:06.158Z,6.7
2018-01-27T00:50:08.558Z,6.69
2018-01-27T00:51:07.213Z,6.67
2018-01-27T00:52:05.114Z,6.69
2018-01-27T00:53:06.153Z,6.66
2018-01-27T00:54:04.843Z,6.66
2018-01-27T00:55:05.184Z,6.67
2018-01-27T00:56:05.702Z,6.68
2018-01-27T00:57:05.423Z,6.69
2018-01-27T00:58:05.839Z,6.69
2018-01-27T00:59:04.660Z,6.64
2018-01-27T01:00:06.121Z,6.58
2018-01-27T01:01:05.440Z,6.58
2018-01-27T01:02:06.938Z,6.57
2018-01-27T01:03:04.596Z,6.55
2018-01-27T01:04:05.720Z,6.55
2018-01-27T01:05:04.759Z,6.55
2018-01-27T01:06:05.897Z,6.58
2018-01-27T01:07:07.561Z,6.55
2018-01-27T01:08:05.946Z,6.54
2018-01-27T01:09:05.744Z,6.52
2018-01-27T01:10:06.750Z,6.53
2018-01-27T01:11:04.650Z,6.51
2018-01-27T01:12:07.082Z,6.5
2018-01-27T01:13:06.992Z,6.49
2018-01-27T01:14:05.477Z,6.49
2018-01-27T01:15:05.502Z,6.49
2018-01-27T01:16:05.289Z,6.46
2018-01-27T01:17:06.388Z,6.48
2018-01-27T01:18:04.373Z,6.46
2018-01-27T01:19:05.395Z,6.45
2018-01-27T01:20:06.233Z,6.46
2018-01-27T01:21:04.472Z,6.47
2018-01-27T01:22:04.931Z,6.51
2018-01-27T01:23:04.623Z,6.48
2018-01-27T01:24:05.242Z,6.49
2018-01-27T01:25:06.546Z,6.51
2018-01-27T01:26:04.880Z,6.52
2018-01-27T01:27:04.751Z,6.51
2018-01-27T01:28:05.962Z,6.51
2018-01-27T01:29:05.637Z,6.51
2018-01-27T01:30:05.015Z,6.53
2018-01-27T01:31:05.229Z,6.52
2018-01-27T01:32:06.670Z,6.55
2018-01-27T01:33:06.022Z,6.56
2018-01-27T01:34:05.298Z,6.55
2018-01-27T01:35:04.879Z,6.56
2018-01-27T01:36:06.407Z,6.57
2018-01-27T01:37:06.131Z,6.58
2018-01-27T01:38:05.884Z,6.59
2018-01-27T01:39:06.042Z,6.58
2018-01-27T01:40:04.703Z,6.58
2018-01-27T01:41:04.907Z,6.58
2018-01-27T01:42:04.711Z,6.58
2018-01-27T01:43:06.897Z,6.59
2018-01-27T01:44:07.010Z,6.59
2018-01-27T01:45:05.776Z,6.57
2018-01-27T01:46:04.801Z,6.57
2018-01-27T01:47:06.405Z,6.56
2018-01-27T01:48:04.780Z,6.54
2018-01-27T01:49:04.782Z,6.52
2018-01-27T01:50:05.591Z,6.52
2018-01-27T01:51:06.241Z,6.51
2018-01-27T01:52:06.019Z,6.52
2018-01-27T01:53:04.717Z,6.52
2018-01-27T01:54:07.168Z,6.53
2018-01-27T01:55:05.026Z,6.53
2018-01-27T01:56:04.697Z,6.52
2018-01-27T01:57:05.608Z,6.53
2018-01-27T01:58:04.793Z,6.54
2018-01-27T01:59:07.485Z,6.53
2018-01-27T02:00:06.068Z,6.53
2018-01-27T02:01:05.193Z,6.53
2018-01-27T02:02:05.468Z,6.53
2018-01-27T02:03:04.839Z,6.53
2018-01-27T02:04:06.134Z,6.55
2018-01-27T02:05:04.871Z,6.53
2018-01-27T02:06:05.593Z,6.56
2018-01-27T02:07:04.970Z,6.55
2018-01-27T02:08:05.972Z,6.51
2018-01-27T02:09:05.859Z,6.51
2018-01-27T02:10:05.162Z,6.52
2018-01-27T02:11:06.059Z,6.51
2018-01-27T02:12:06.099Z,6.5
2018-01-27T02:13:05.430Z,6.49
2018-01-27T02:14:06.307Z,6.52
2018-01-27T02:15:05.053Z,6.52
2018-01-27T02:16:05.466Z,6.51
2018-01-27T02:17:06.453Z,6.52
2018-01-27T02:18:05.413Z,6.52
2018-01-27T02:19:05.474Z,6.5
2018-01-27T02:20:05.678Z,6.52
2018-01-27T02:21:06.362Z,6.52
2018-01-27T02:22:05.550Z,6.5
2018-01-27T02:23:07.358Z,6.47
2018-01-27T02:24:06.752Z,6.46
2018-01-27T02:25:04.898Z,6.45
2018-01-27T02:26:05.938Z,6.44
2018-01-27T02:27:04.911Z,6.46
2018-01-27T02:28:05.337Z,6.44
2018-01-27T02:29:05.684Z,6.44
2018-01-27T02:30:04.998Z,6.42
2018-01-27T02:31:06.550Z,6.42
2018-01-27T02:32:05.726Z,6.43
2018-01-27T02:33:05.474Z,6.43
2018-01-27T02:34:04.905Z,6.46
2018-01-27T02:35:05.689Z,6.47
2018-01-27T02:36:05.080Z,6.46
2018-01-27T02:37:06.473Z,6.47
2018-01-27T02:38:05.635Z,6.5
2018-01-27T02:39:04.927Z,6.46
2018-01-27T02:40:05.356Z,6.38
2018-01-27T02:41:04.984Z,6.4
2018-01-27T02:42:04.912Z,6.35
2018-01-27T02:43:05.738Z,6.3
2018-01-27T02:44:05.649Z,6.31
2018-01-27T02:45:05.770Z,6.26
2018-01-27T02:46:04.870Z,6.24
2018-01-27T02:47:05.022Z,6.19
2018-01-27T02:48:05.072Z,6.13
2018-01-27T02:49:05.838Z,6.14
2018-01-27T02:50:05.834Z,6.16
2018-01-27T02:51:06.709Z,6.17
2018-01-27T02:52:06.085Z,6.2
2018-01-27T02:53:05.055Z,6.21
2018-01-27T02:54:04.781Z,6.23
2018-01-27T02:55:04.726Z,6.26
2018-01-27T02:56:04.948Z,6.28
2018-01-27T02:57:06.274Z,6.27
2018-01-27T02:58:04.830Z,6.27
2018-01-27T02:59:05.663Z,6.25
2018-01-27T03:00:05.069Z,6.21
2018-01-27T03:01:06.332Z,6.11
2018-01-27T03:02:05.745Z,6.06
2018-01-27T03:03:06.196Z,6.02
2018-01-27T03:04:05.754Z,5.99
2018-01-27T03:05:05.322Z,5.93
2018-01-27T03:06:04.917Z,5.94
2018-01-27T03:07:04.700Z,5.98
2018-01-27T03:08:05.024Z,6
2018-01-27T03:09:05.293Z,6.03
2018-01-27T03:10:04.655Z,6.04
2018-01-27T03:11:04.784Z,6.09
2018-01-27T03:12:04.623Z,6.09
2018-01-27T03:13:05.077Z,6.14
2018-01-27T03:14:05.164Z,6.16
2018-01-27T03:15:05.254Z,6.16
2018-01-27T03:16:04.646Z,6.18
2018-01-27T03:17:05.655Z,6.16
2018-01-27T03:18:04.786Z,6.19
2018-01-27T03:19:05.092Z,6.21
2018-01-27T03:20:04.562Z,6.22
2018-01-27T03:21:05.253Z,6.23
2018-01-27T03:22:05.732Z,6.24
2018-01-27T03:23:05.750Z,6.28
2018-01-27T03:24:05.092Z,6.28
2018-01-27T03:25:05.489Z,6.32
2018-01-27T03:26:05.638Z,6.3
2018-01-27T03:27:05.682Z,6.32
2018-01-27T03:28:05.511Z,6.32
2018-01-27T03:29:04.976Z,6.28
2018-01-27T03:30:05.942Z,6.28
2018-01-27T03:31:04.989Z,6.27
2018-01-27T03:32:05.665Z,6.28
2018-01-27T03:33:05.626Z,6.27
2018-01-27T03:34:05.800Z,6.27
2018-01-27T03:35:05.879Z,6.27
2018-01-27T03:36:06.237Z,6.24
2018-01-27T03:37:04.941Z,6.24
2018-01-27T03:38:06.945Z,6.23
2018-01-27T03:39:05.852Z,6.18
2018-01-27T03:40:04.998Z,6.13
2018-01-27T03:41:05.244Z,6.11
2018-01-27T03:42:05.224Z,6.08
2018-01-27T03:43:07.523Z,6.08
2018-01-27T03:44:07.091Z,6.06
2018-01-27T03:45:05.455Z,6.03
2018-01-27T03:46:05.921Z,6.03
2018-01-27T03:47:06.149Z,6.03
2018-01-27T03:48:06.703Z,6.03
2018-01-27T03:49:06.728Z,6.06
2018-01-27T03:50:06.008Z,6.03
2018-01-27T03:51:04.984Z,5.97
2018-01-27T03:52:08.592Z,5.93
2018-01-27T03:53:05.708Z,5.91
2018-01-27T03:54:06.502Z,5.94
2018-01-27T03:55:08.693Z,5.89
2018-01-27T03:56:06.634Z,5.88
2018-01-27T03:57:06.966Z,5.85
2018-01-27T03:58:08.613Z,5.83
2018-01-27T03:59:05.180Z,5.83
2018-01-27T04:00:05.668Z,5.77
2018-01-27T04:01:05.659Z,5.8
2018-01-27T04:02:04.996Z,5.75
2018-01-27T04:03:05.946Z,5.76
2018-01-27T04:04:04.884Z,5.72
2018-01-27T04:06:04.967Z,5.71
2018-01-27T04:07:08.588Z,5.66
2018-01-27T04:08:10.147Z,5.64
2018-01-27T04:09:05.452Z,5.6
2018-01-27T04:10:06.116Z,5.64
2018-01-27T04:11:04.889Z,5.65
2018-01-27T04:12:05.815Z,5.64
2018-01-27T04:13:06.903Z,5.64
2018-01-27T04:14:06.960Z,5.64
2018-01-27T04:15:06.337Z,5.66
2018-01-27T04:16:05.171Z,5.65
2018-01-27T04:17:06.698Z,5.64
2018-01-27T04:18:07.605Z,5.64
2018-01-27T04:19:05.319Z,5.6
2018-01-27T04:20:06.269Z,5.59
2018-01-27T04:21:08.782Z,5.56
2018-01-27T04:22:08.049Z,5.55
2018-01-27T04:23:06.199Z,5.55
2018-01-27T04:24:05.376Z,5.53
2018-01-27T04:25:04.817Z,5.53
2018-01-27T04:26:05.279Z,5.54
2018-01-27T04:27:06.927Z,5.53
2018-01-27T04:28:06.088Z,5.54
2018-01-27T04:29:05.571Z,5.55
2018-01-27T04:30:04.960Z,5.59
2018-01-27T04:31:06.373Z,5.63
2018-01-27T04:32:06.797Z,5.66
2018-01-27T04:33:06.356Z,5.68
2018-01-27T04:34:07.683Z,5.67
2018-01-27T04:35:06.582Z,5.71
2018-01-27T04:36:05.109Z,5.71
2018-01-27T04:37:06.007Z,5.71
2018-01-27T04:38:05.553Z,5.68
2018-01-27T04:39:05.156Z,5.71
2018-01-27T04:40:05.358Z,5.74
2018-01-27T04:41:04.714Z,5.73
2018-01-27T04:42:08.141Z,5.72
2018-01-27T04:43:05.697Z,5.7
2018-01-27T04:44:06.213Z,5.71
2018-01-27T04:45:05.245Z,5.75
2018-01-27T04:46:05.989Z,5.75
2018-01-27T04:47:05.460Z,5.78
2018-01-27T04:48:06.479Z,5.76
2018-01-27T04:49:04.974Z,5.74
2018-01-27T04:50:09.741Z,5.77
2018-01-27T04:51:08.219Z,5.78
2018-01-27T04:52:13.081Z,5.76
2018-01-27T04:53:05.154Z,5.73
2018-01-27T04:54:08.068Z,5.72
2018-01-27T04:55:10.342Z,5.73
2018-01-27T04:56:08.259Z,5.74
2018-01-27T04:57:11.702Z,5.75
2018-01-27T04:58:08.027Z,5.74
2018-01-27T04:59:09.250Z,5.75
2018-01-27T05:00:09.753Z,5.76
2018-01-27T05:01:07.813Z,5.76
2018-01-27T05:02:19.285Z,5.78
2018-01-27T05:03:07.699Z,5.8
2018-01-27T05:04:08.642Z,5.83
2018-01-27T05:05:07.064Z,5.83
2018-01-27T05:06:07.616Z,5.84
2018-01-27T05:07:11.635Z,5.77
2018-01-27T05:08:10.293Z,5.7
2018-01-27T05:09:14.390Z,5.74
2018-01-27T05:10:07.960Z,5.76
2018-01-27T05:11:07.371Z,5.8
2018-01-27T05:12:06.201Z,5.79
2018-01-27T05:13:09.329Z,5.83
2018-01-27T05:14:08.469Z,5.76
2018-01-27T05:15:08.125Z,5.7
2018-01-27T05:16:07.835Z,5.62
2018-01-27T05:17:06.362Z,5.61
2018-01-27T05:18:06.380Z,5.59
2018-01-27T05:19:10.503Z,5.59
2018-01-27T05:20:08.198Z,5.65
2018-01-27T05:21:09.374Z,5.68
2018-01-27T05:22:10.834Z,5.69
2018-01-27T05:23:08.056Z,5.7
2018-01-27T05:24:07.170Z,5.71
2018-01-27T05:25:10.996Z,5.74
2018-01-27T05:26:07.672Z,5.73
2018-01-27T05:27:06.718Z,5.73
2018-01-27T05:28:09.451Z,5.73
2018-01-27T05:29:09.272Z,5.76
2018-01-27T05:30:08.095Z,5.74
2018-01-27T05:31:08.272Z,5.77
2018-01-27T05:32:08.768Z,5.77
2018-01-27T05:33:08.557Z,5.79
2018-01-27T05:34:06.879Z,5.81
2018-01-27T05:35:06.591Z,5.85
2018-01-27T05:36:06.960Z,5.85
2018-01-27T05:37:06.801Z,5.85
2018-01-27T05:38:06.048Z,5.84
2018-01-27T05:39:06.324Z,5.85
2018-01-27T05:40:07.756Z,5.85
2018-01-27T05:41:05.588Z,5.85
2018-01-27T05:42:09.392Z,5.83
2018-01-27T05:43:07.766Z,5.85
2018-01-27T05:44:09.693Z,5.85
2018-01-27T05:45:10.144Z,5.87
2018-01-27T05:46:06.992Z,5.87
2018-01-27T05:47:06.676Z,5.85
2018-01-27T05:48:06.754Z,5.86
2018-01-27T05:49:07.356Z,5.85
2018-01-27T05:50:05.477Z,5.84
2018-01-27T05:51:05.606Z,5.84
2018-01-27T05:52:04.968Z,5.77
2018-01-27T05:53:04.917Z,5.74
2018-01-27T05:54:05.025Z,5.69
2018-01-27T05:55:05.172Z,5.64
2018-01-27T05:56:04.946Z,5.56
2018-01-27T05:59:05.277Z,5.45
2018-01-27T06:00:04.820Z,5.45
2018-01-27T06:01:05.124Z,5.45
2018-01-27T06:02:04.975Z,5.48
2018-01-27T06:03:04.900Z,5.49
2018-01-27T06:04:05.147Z,5.43
2018-01-27T06:05:04.793Z,5.41
2018-01-27T06:06:04.934Z,5.37
2018-01-27T06:07:05.023Z,5.39
2018-01-27T06:08:04.905Z,5.41
2018-01-27T06:09:04.975Z,5.43
2018-01-27T06:10:04.693Z,5.41
2018-01-27T06:11:05.064Z,5.4
2018-01-27T06:12:04.941Z,5.41
2018-01-27T06:13:04.872Z,5.39
2018-01-27T06:14:05.147Z,5.37
2018-01-27T06:15:04.720Z,5.39
2018-01-27T06:16:04.738Z,5.36
2018-01-27T06:17:04.909Z,5.36
2018-01-27T06:18:04.926Z,5.32
2018-01-27T06:19:04.846Z,5.29
2018-01-27T06:20:04.804Z,5.31
2018-01-27T06:21:04.783Z,5.33
2018-01-27T06:22:05.084Z,5.37
2018-01-27T06:23:04.949Z,5.35
2018-01-27T06:24:05.110Z,5.39
2018-01-27T06:25:05.155Z,5.39
2018-01-27T06:26:04.880Z,5.41
2018-01-27T06:27:04.863Z,5.42
2018-01-27T06:28:05.031Z,5.46
2018-01-27T06:29:04.955Z,5.48
2018-01-27T06:30:05.043Z,5.48
2018-01-27T06:31:04.959Z,5.49
2018-01-27T06:32:05.012Z,5.51
2018-01-27T06:33:05.013Z,5.52
2018-01-27T06:34:05.037Z,5.5
2018-01-27T06:35:04.867Z,5.53
2018-01-27T06:36:05.269Z,5.53
2018-01-27T06:37:05.269Z,5.55
2018-01-27T06:38:05.512Z,5.55
2018-01-27T06:39:04.831Z,5.53
2018-01-27T06:40:07.172Z,5.51
2018-01-27T06:41:05.139Z,5.53
2018-01-27T06:42:05.182Z,5.51
2018-01-27T06:43:05.257Z,5.52
2018-01-27T06:44:05.072Z,5.53
2018-01-27T06:45:05.030Z,5.54
2018-01-27T06:46:05.097Z,5.55
2018-01-27T06:47:05.210Z,5.57
2018-01-27T06:48:05.074Z,5.6
2018-01-27T06:49:05.016Z,5.61
2018-01-27T06:50:05.470Z,5.64
2018-01-27T06:51:05.220Z,5.63
2018-01-27T06:52:05.272Z,5.62
2018-01-27T06:53:04.265Z,5.64
2018-01-27T06:54:04.334Z,5.65
2018-01-27T06:55:04.167Z,5.67
2018-01-27T06:56:04.300Z,5.66
2018-01-27T06:57:04.377Z,5.7
2018-01-27T06:58:04.303Z,5.68
2018-01-27T06:59:04.193Z,5.7
2018-01-27T07:00:04.181Z,5.69
2018-01-27T07:01:04.289Z,5.69
2018-01-27T07:02:04.523Z,5.72
2018-01-27T07:03:04.245Z,5.68
2018-01-27T07:04:04.424Z,5.71
2018-01-27T07:05:04.188Z,5.7
2018-01-27T07:06:04.723Z,5.7
2018-01-27T07:07:04.556Z,5.71
2018-01-27T07:08:04.358Z,5.71
2018-01-27T07:09:04.294Z,5.68
2018-01-27T07:10:04.456Z,5.69
2018-01-27T07:11:04.174Z,5.67
2018-01-27T07:12:04.442Z,5.69
2018-01-27T07:13:04.496Z,5.62
2018-01-27T07:14:04.340Z,5.58
2018-01-27T07:15:04.481Z,5.58
2018-01-27T07:16:04.508Z,5.6
2018-01-27T07:17:04.297Z,5.61
2018-01-27T07:18:04.445Z,5.57
2018-01-27T07:19:04.541Z,5.5
2018-01-27T07:20:04.549Z,5.47
2018-01-27T07:21:04.370Z,5.38
2018-01-27T07:22:04.158Z,5.4
2018-01-27T07:23:04.541Z,5.43
2018-01-27T07:24:04.437Z,5.46
2018-01-27T07:25:04.469Z,5.46
2018-01-27T07:26:04.537Z,5.51
2018-01-27T07:27:04.208Z,5.5
2018-01-27T07:28:04.319Z,5.5
2018-01-27T07:29:04.510Z,5.5
2018-01-27T07:30:04.564Z,5.44
2018-01-27T07:31:04.605Z,5.46
2018-01-27T07:32:04.608Z,5.48
2018-01-27T07:33:04.263Z,5.49
2018-01-27T07:34:04.314Z,5.5
2018-01-27T07:35:04.520Z,5.52
2018-01-27T07:36:04.414Z,5.5
2018-01-27T07:37:04.374Z,5.5
2018-01-27T07:38:04.618Z,5.51
2018-01-27T07:39:04.716Z,5.52
2018-01-27T07:40:05.542Z,5.52
2018-01-27T07:41:04.718Z,5.49
2018-01-27T07:42:04.360Z,5.46
2018-01-27T07:43:04.480Z,5.36
2018-01-27T07:44:04.456Z,5.26
2018-01-27T07:45:04.688Z,5.18
2018-01-27T07:46:04.263Z,5.12
2018-01-27T07:47:04.191Z,5.06
2018-01-27T07:48:04.606Z,5.05
2018-01-27T07:49:04.511Z,5.01
2018-01-27T07:50:04.392Z,5
2018-01-27T07:51:04.322Z,4.96
2018-01-27T07:52:04.327Z,5.02
2018-01-27T07:53:04.543Z,5.05
2018-01-27T07:54:04.328Z,5.03
2018-01-27T07:55:04.439Z,5
2018-01-27T07:56:04.508Z,4.93
2018-01-27T07:57:04.533Z,4.96
2018-01-27T07:58:04.663Z,4.99
2018-01-27T07:59:04.467Z,4.98
2018-01-27T08:00:04.523Z,4.96
2018-01-27T08:01:04.800Z,4.99
2018-01-27T08:02:04.633Z,4.99
2018-01-27T08:03:04.641Z,5
2018-01-27T08:04:04.287Z,5
2018-01-27T08:05:04.712Z,4.97
2018-01-27T08:06:04.472Z,4.91
2018-01-27T08:07:04.544Z,4.9
2018-01-27T08:08:04.528Z,4.9
2018-01-27T08:09:04.520Z,4.92
2018-01-27T08:10:04.563Z,4.95
2018-01-27T08:11:04.329Z,4.95
2018-01-27T08:12:04.625Z,4.96
2018-01-27T08:13:04.613Z,4.92
2018-01-27T08:14:04.627Z,4.94
2018-01-27T08:15:04.408Z,4.9
2018-01-27T08:16:04.607Z,4.85
2018-01-27T08:17:04.635Z,4.87
2018-01-27T08:18:04.252Z,4.92
2018-01-27T08:19:04.444Z,4.9
2018-01-27T08:20:04.521Z,4.82
2018-01-27T08:21:05.218Z,4.78
2018-01-27T08:22:04.692Z,4.78
2018-01-27T08:23:04.440Z,4.82
2018-01-27T08:24:04.721Z,4.69
2018-01-27T08:25:04.581Z,4.68
2018-01-27T08:26:04.390Z,4.63
2018-01-27T08:27:04.569Z,4.64
2018-01-27T08:28:04.963Z,4.59
2018-01-27T08:29:04.535Z,4.65
2018-01-27T08:30:04.804Z,4.62
2018-01-27T08:31:04.617Z,4.61
2018-01-27T08:32:04.718Z,4.66
2018-01-27T08:33:04.657Z,4.7
2018-01-27T08:36:18.750Z,4.64
2018-01-27T08:37:04.506Z,4.69
2018-01-27T08:38:04.477Z,4.75
2018-01-27T08:39:04.725Z,4.72
2018-01-27T08:40:04.556Z,4.76
2018-01-27T08:41:04.540Z,4.78
2018-01-27T08:42:04.693Z,4.77
2018-01-27T08:43:04.760Z,4.76
2018-01-27T08:44:04.769Z,4.71
2018-01-27T08:45:04.632Z,4.62
2018-01-27T08:46:04.728Z,4.56
2018-01-27T08:47:04.635Z,4.58
2018-01-27T08:48:04.590Z,4.59
2018-01-27T08:49:04.589Z,4.6
2018-01-27T08:50:04.558Z,4.65
2018-01-27T08:51:04.608Z,4.71
2018-01-27T08:52:04.645Z,4.71
2018-01-27T08:53:05.374Z,4.75
2018-01-27T08:54:06.239Z,4.7
2018-01-27T08:55:05.747Z,4.73
2018-01-27T08:56:05.794Z,4.82
2018-01-27T08:57:05.837Z,4.84
2018-01-27T08:58:07.109Z,4.83
2018-01-27T08:59:05.896Z,4.84
2018-01-27T09:00:05.263Z,4.85
2018-01-27T09:01:05.684Z,4.85
2018-01-27T09:02:05.910Z,4.73
2018-01-27T09:03:05.282Z,4.79
2018-01-27T09:04:05.837Z,4.75
2018-01-27T09:05:05.701Z,4.77
2018-01-27T09:06:29.773Z,4.85
2018-01-27T09:07:04.615Z,4.83
2018-01-27T09:08:04.469Z,4.78
2018-01-27T09:09:04.775Z,4.85
2018-01-27T09:10:20.932Z,4.91
2018-01-27T09:11:20.992Z,4.94
2018-01-27T09:13:20.892Z,4.96
2018-01-27T09:14:20.926Z,5.01
2018-01-27T09:15:20.947Z,5
2018-01-27T09:16:21.011Z,4.98
2018-01-27T09:17:21.018Z,4.98
2018-01-27T09:18:20.884Z,5.01
2018-01-27T09:19:20.851Z,5.05
2018-01-27T09:20:20.632Z,5.08
2018-01-27T09:21:20.685Z,5.07
2018-01-27T09:22:21.202Z,5.03
2018-01-27T09:23:20.843Z,5.08
2018-01-27T09:24:19.740Z,5.08
2018-01-27T09:25:19.762Z,4.93
2018-01-27T09:26:19.709Z,4.97
2018-01-27T09:27:20.298Z,5.02
2018-01-27T09:28:20.082Z,5
2018-01-27T09:29:19.425Z,4.94
2018-01-27T09:30:20.098Z,4.84
2018-01-27T09:31:19.919Z,4.89
2018-01-27T09:32:19.617Z,4.91
2018-01-27T09:33:19.646Z,4.98
2018-01-27T09:34:19.530Z,5.02
2018-01-27T09:35:19.787Z,5.04
2018-01-27T09:36:19.733Z,5.08
2018-01-27T09:37:19.850Z,5.03
2018-01-27T09:38:19.858Z,4.88
2018-01-27T09:39:19.742Z,4.88
2018-01-27T09:40:19.850Z,4.93
2018-01-27T09:41:19.743Z,4.95
2018-01-27T09:42:19.657Z,4.99
2018-01-27T09:43:19.858Z,4.99
2018-01-27T09:44:19.692Z,4.96
2018-01-27T09:45:19.677Z,5.04
2018-01-27T09:46:19.573Z,5.05
2018-01-27T09:47:19.950Z,5.07
2018-01-27T09:48:20.878Z,5.09
2018-01-27T09:49:19.893Z,5.15
2018-01-27T09:50:21.835Z,5.15
2018-01-27T09:51:19.900Z,5.15
2018-01-27T09:52:21.492Z,5.17
2018-01-27T09:53:19.690Z,5.18
2018-01-27T09:54:19.805Z,5.23
2018-01-27T09:55:19.867Z,5.28
2018-01-27T09:56:19.674Z,5.25
2018-01-27T09:57:53.465Z,5.28
2018-01-27T09:58:23.928Z,5.29
2018-01-27T09:59:24.032Z,5.33
2018-01-27T10:00:22.519Z,5.35
2018-01-27T10:01:22.807Z,5.36
2018-01-27T10:02:25.064Z,5.39
2018-01-27T10:03:23.433Z,5.41
2018-01-27T10:04:21.056Z,5.44
2018-01-27T10:05:25.236Z,5.45
2018-01-27T10:06:22.066Z,5.45
2018-01-27T10:07:21.328Z,5.45
2018-01-27T10:08:21.309Z,5.47
2018-01-27T10:09:51.068Z,5.5
2018-01-27T10:10:24.485Z,5.51
2018-01-27T10:11:31.850Z,5.53
2018-01-27T10:12:25.981Z,5.54
2018-01-27T10:13:22.876Z,5.52
2018-01-27T10:14:21.329Z,5.55
2018-01-27T10:15:20.654Z,5.56
2018-01-27T10:16:24.082Z,5.53
2018-01-27T10:17:21.558Z,5.52
2018-01-27T10:18:19.469Z,5.49
2018-01-27T10:19:52.533Z,5.34
2018-01-27T10:20:21.031Z,5.31
2018-01-27T10:21:20.946Z,5.26
2018-01-27T10:22:20.652Z,5.22
2018-01-27T10:23:21.177Z,5.18
2018-01-27T10:24:22.910Z,5.13
2018-01-27T10:25:25.478Z,5.12
2018-01-27T10:26:29.222Z,5.08
2018-01-27T10:27:21.399Z,4.99
2018-01-27T10:28:25.734Z,4.94
2018-01-27T10:29:22.209Z,4.95
2018-01-27T10:30:23.158Z,4.94
2018-01-27T10:31:19.991Z,4.97
2018-01-27T10:32:24.516Z,5.03
2018-01-27T10:33:20.711Z,5.05
2018-01-27T10:34:20.386Z,5.12
2018-01-27T10:35:22.803Z,5.15
2018-01-27T10:36:24.848Z,5.15
2018-01-27T10:37:22.603Z,5.17
2018-01-27T10:38:21.799Z,5.23
2018-01-27T10:39:19.294Z,5.31
2018-01-27T10:40:21.181Z,5.26
2018-01-27T10:41:21.719Z,5.24
2018-01-27T10:42:21.726Z,5.26
2018-01-27T10:43:20.309Z,5.27
2018-01-27T10:44:23.564Z,5.27
2018-01-27T10:45:22.114Z,5.28
2018-01-27T10:46:21.357Z,5.21
2018-01-27T10:47:20.829Z,5.24
2018-01-27T10:48:20.674Z,5.29
2018-01-27T10:49:23.240Z,5.14
2018-01-27T10:50:22.019Z,5.07
2018-01-27T10:51:22.318Z,5.02
2018-01-27T10:52:21.468Z,4.97
2018-01-27T10:53:21.419Z,4.88
2018-01-27T10:54:22.235Z,4.93
2018-01-27T10:55:20.423Z,4.93
2018-01-27T10:56:20.668Z,4.9
2018-01-27T10:57:21.862Z,4.83
2018-01-27T10:58:22.727Z,4.87
2018-01-27T10:59:29.765Z,4.93
2018-01-27T11:00:24.428Z,4.97
2018-01-27T11:01:21.223Z,4.95
2018-01-27T11:02:21.139Z,4.96
2018-01-27T11:03:19.723Z,4.96
2018-01-27T11:04:22.314Z,4.98
2018-01-27T11:05:20.619Z,4.97
2018-01-27T11:06:19.769Z,4.96
2018-01-27T11:07:25.822Z,4.92
2018-01-27T11:08:23.837Z,4.9
2018-01-27T11:09:22.827Z,4.9
2018-01-27T11:10:22.119Z,4.91
2018-01-27T11:11:22.535Z,4.94
2018-01-27T11:12:20.025Z,4.91
2018-01-27T11:13:23.972Z,4.95
2018-01-27T11:14:21.609Z,4.91
2018-01-27T11:15:20.697Z,4.97
2018-01-27T11:16:20.843Z,5.01
2018-01-27T11:17:24.012Z,4.91
2018-01-27T11:18:21.140Z,4.96
2018-01-27T11:19:21.693Z,4.98
2018-01-27T11:20:21.584Z,5
2018-01-27T11:21:22.026Z,5.01
2018-01-27T11:22:20.259Z,5.02
2018-01-27T11:23:23.429Z,4.99
2018-01-27T11:24:20.779Z,5.03
2018-01-27T11:25:20.287Z,5.07
2018-01-27T11:26:22.149Z,5.13
2018-01-27T11:27:26.744Z,5.19
2018-01-27T11:28:25.767Z,5.22
2018-01-27T11:29:30.284Z,5.27
2018-01-27T11:30:20.635Z,5.26
2018-01-27T11:31:23.960Z,5.26
2018-01-27T11:32:23.260Z,5.28
2018-01-27T11:33:22.449Z,5.31
2018-01-27T11:34:33.243Z,5.33
2018-01-27T11:35:23.145Z,5.35
2018-01-27T11:36:24.085Z,5.37
2018-01-27T11:37:30.247Z,5.36
2018-01-27T11:38:19.352Z,5.37
2018-01-27T11:39:19.333Z,5.39
2018-01-27T11:40:19.685Z,5.34
2018-01-27T11:41:19.389Z,5.34
2018-01-27T11:42:19.514Z,5.37
2018-01-27T11:43:19.941Z,5.29
2018-01-27T11:44:19.761Z,5.31
2018-01-27T11:45:19.705Z,5.32
2018-01-27T11:46:19.982Z,5.34
2018-01-27T11:47:19.785Z,5.37
2018-01-27T11:48:19.468Z,5.37
2018-01-27T11:49:19.617Z,5.4
2018-01-27T11:50:19.831Z,5.43
2018-01-27T11:51:19.963Z,5.44
2018-01-27T11:52:19.752Z,5.47
2018-01-27T11:53:19.768Z,5.49
2018-01-27T11:54:19.580Z,5.42
2018-01-27T11:55:19.911Z,5.38
2018-01-27T11:56:19.765Z,5.4
2018-01-27T11:57:19.864Z,5.41
2018-01-27T11:58:19.597Z,5.44
2018-01-27T11:59:19.585Z,5.45
2018-01-27T12:00:19.541Z,5.45
2018-01-27T12:01:19.654Z,5.45
2018-01-27T12:02:19.602Z,5.44
2018-01-27T12:03:19.772Z,5.46
2018-01-27T12:04:19.590Z,5.47
2018-01-27T12:05:19.804Z,5.5
2018-01-27T12:06:19.472Z,5.48
2018-01-27T12:07:19.968Z,5.5
2018-01-27T12:08:19.877Z,5.51
2018-01-27T12:09:19.700Z,5.5
2018-01-27T12:10:20.206Z,5.52
2018-01-27T12:11:19.780Z,5.53
2018-01-27T12:12:19.608Z,5.49
2018-01-27T12:13:19.672Z,5.51
2018-01-27T12:14:19.495Z,5.5
2018-01-27T12:15:19.673Z,5.53
2018-01-27T12:16:19.803Z,5.54
2018-01-27T12:17:19.660Z,5.55
2018-01-27T12:18:19.747Z,5.58
2018-01-27T12:19:19.798Z,5.58
2018-01-27T12:20:19.480Z,5.54
2018-01-27T12:21:19.838Z,5.56
2018-01-27T12:22:19.727Z,5.58
2018-01-27T12:23:19.938Z,5.58
2018-01-27T12:24:19.723Z,5.59
2018-01-27T12:25:19.537Z,5.59
2018-01-27T12:26:19.677Z,5.59
2018-01-27T12:27:19.901Z,5.58
2018-01-27T12:30:21.851Z,5.58
2018-01-27T12:31:19.798Z,5.6
2018-01-27T12:32:19.728Z,5.58
2018-01-27T12:33:19.888Z,5.52
2018-01-27T12:34:19.809Z,5.56
2018-01-27T12:35:19.849Z,5.59
2018-01-27T12:36:19.789Z,5.62
2018-01-27T12:37:19.731Z,5.62
2018-01-27T12:38:19.439Z,5.61
2018-01-27T12:39:19.835Z,5.64
2018-01-27T12:40:19.772Z,5.64
2018-01-27T12:41:19.676Z,5.66
2018-01-27T12:42:19.738Z,5.66
2018-01-27T12:43:19.610Z,5.65
2018-01-27T12:44:19.676Z,5.65
2018-01-27T12:45:19.848Z,5.59
2018-01-27T12:46:19.643Z,5.58
2018-01-27T12:47:19.715Z,5.59
2018-01-27T12:48:19.692Z,5.6
2018-01-27T12:49:19.788Z,5.62
2018-01-27T12:50:19.600Z,5.64
2018-01-27T12:51:19.686Z,5.66
2018-01-27T12:52:20.099Z,5.67
2018-01-27T12:53:20.004Z,5.7
2018-01-27T12:54:20.221Z,5.68
2018-01-27T12:55:19.892Z,5.7
2018-01-27T12:56:19.728Z,5.71
2018-01-27T12:57:19.912Z,5.72
2018-01-27T12:58:19.929Z,5.73
2018-01-27T12:59:19.721Z,5.74
2018-01-27T13:00:20.032Z,5.76
2018-01-27T13:01:19.996Z,5.74
2018-01-27T13:02:19.925Z,5.78
2018-01-27T13:03:20.178Z,5.77
2018-01-27T13:04:19.993Z,5.75
2018-01-27T13:05:20.079Z,5.75
2018-01-27T13:06:20.085Z,5.77
2018-01-27T13:07:19.990Z,5.77
2018-01-27T13:08:19.859Z,5.79
2018-01-27T13:09:19.846Z,5.77
2018-01-27T13:10:19.813Z,5.8
2018-01-27T13:11:19.908Z,5.83
2018-01-27T13:12:19.719Z,5.83
2018-01-27T13:13:19.772Z,5.79
2018-01-27T13:14:19.675Z,5.7
2018-01-27T13:15:22.822Z,5.7
2018-01-27T13:16:20.018Z,5.71
2018-01-27T13:17:20.058Z,5.72
2018-01-27T13:18:19.950Z,5.75
2018-01-27T13:19:19.916Z,5.77
2018-01-27T13:20:20.024Z,5.76
2018-01-27T13:21:20.087Z,5.75
2018-01-27T13:22:19.951Z,5.74
2018-01-27T13:23:19.997Z,5.73
2018-01-27T13:24:19.904Z,5.72
2018-01-27T13:25:19.968Z,5.7
2018-01-27T13:26:19.860Z,5.65
2018-01-27T13:27:24.031Z,5.68
2018-01-27T13:28:19.734Z,5.69
2018-01-27T13:29:20.021Z,5.7